Time;durP1;ratioP1;P1;durP2;ratioP2;P2;SDS_P1;SDS_P2;PMS_P1;PMS_P2;Temp;Humidity;BMP_temperature;BMP_pressure;BME280_temperature;BME280_humidity;BME280_pressure;Samples;Min_cycle;Max_cycle;Signal;HPM_P1;HPM_P2
2022/08/31 00:05:21;;;;;;;5.00;1.15;;;17.80;99.90;;;;;;4991329;28;20101;-63
2022/08/31 00:07:47;;;;;;;2.72;1.50;;;17.70;99.90;;;;;;4990406;28;20475;-63
2022/08/31 00:10:13;;;;;;;3.67;1.40;;;17.70;99.90;;;;;;4985497;28;20062;-63
2022/08/31 00:12:44;;;;;;;1.80;1.00;;;17.60;99.90;;;;;;4991193;28;20034;-63
2022/08/31 00:15:13;;;;;;;3.90;1.30;;;17.60;99.90;;;;;;4992067;28;20082;-63
2022/08/31 00:17:39;;;;;;;4.88;1.17;;;17.50;99.90;;;;;;4993843;28;20054;-63
2022/08/31 00:20:07;;;;;;;4.00;1.10;;;17.40;99.90;;;;;;4992950;28;20034;-63
2022/08/31 00:22:32;;;;;;;3.58;1.00;;;17.40;99.90;;;;;;4997862;28;20575;-63
2022/08/31 00:24:58;;;;;;;1.73;1.20;;;17.30;99.90;;;;;;4998006;28;20121;-63
2022/08/31 00:27:24;;;;;;;4.20;1.27;;;17.30;99.90;;;;;;4996737;28;20049;-62
2022/08/31 00:29:49;;;;;;;2.25;1.00;;;17.20;99.90;;;;;;4997608;28;20038;-63
2022/08/31 00:32:15;;;;;;;3.88;1.15;;;17.10;99.90;;;;;;4998259;28;20042;-63
2022/08/31 00:34:40;;;;;;;2.13;1.20;;;17.10;99.90;;;;;;4998252;28;20050;-63
2022/08/31 00:37:06;;;;;;;3.55;1.10;;;17.10;99.90;;;;;;4996112;28;20030;-63
2022/08/31 00:39:31;;;;;;;1.52;1.00;;;17.10;99.90;;;;;;4995310;28;20038;-62
2022/08/31 00:41:57;;;;;;;2.33;1.05;;;17.00;99.90;;;;;;4986724;28;20073;-63
2022/08/31 00:44:23;;;;;;;3.67;1.52;;;17.00;1.00;;;;;;4996503;28;20633;-62
2022/08/31 00:46:48;;;;;;;4.25;1.17;;;16.90;1.00;;;;;;4996927;28;20041;-62
2022/08/31 00:49:16;;;;;;;2.03;1.23;;;16.90;1.00;;;;;;4993437;28;20420;-63
2022/08/31 00:51:57;;;;;;;1.88;1.20;;;16.80;1.00;;;;;;4990189;28;20038;-63
2022/08/31 00:54:37;;;;;;;5.82;1.23;;;16.80;1.00;;;;;;4997290;28;20069;-62
2022/08/31 00:57:05;;;;;;;1.70;1.10;;;16.70;13.80;;;;;;4996538;28;20042;-63
2022/08/31 00:59:32;;;;;;;3.35;1.60;;;16.50;83.70;;;;;;4996592;28;20556;-62
2022/08/31 01:01:57;;;;;;;5.95;1.30;;;16.30;99.90;;;;;;4997300;28;20527;-62
2022/08/31 01:04:23;;;;;;;4.50;1.27;;;16.20;99.90;;;;;;4996219;28;20053;-62
2022/08/31 01:06:50;;;;;;;1.83;1.20;;;16.00;99.90;;;;;;4996411;28;20034;-63
2022/08/31 01:09:20;;;;;;;2.50;1.23;;;16.00;1.00;;;;;;4985334;28;20040;-62
2022/08/31 01:11:46;;;;;;;1.50;1.20;;;15.90;1.00;;;;;;4989622;28;20088;-62
2022/08/31 01:14:12;;;;;;;2.28;0.70;;;15.90;99.90;;;;;;4997835;28;20451;-62
2022/08/31 01:16:43;;;;;;;1.70;1.13;;;16.40;99.90;;;;;;4995544;28;20088;-62
2022/08/31 01:19:20;;;;;;;1.95;1.20;;;15.80;99.90;;;;;;4996743;28;20042;-62
2022/08/31 01:22:04;;;;;;;4.53;1.20;;;15.80;1.00;;;;;;4992758;28;20074;-62
2022/08/31 01:24:32;;;;;;;3.63;1.10;;;15.90;99.90;;;;;;4997888;28;20046;-62
2022/08/31 01:27:02;;;;;;;2.33;1.23;;;16.00;99.90;;;;;;4995695;28;20044;-62
2022/08/31 01:29:28;;;;;;;2.67;1.23;;;16.10;99.90;;;;;;4993058;28;20120;-62
2022/08/31 01:31:54;;;;;;;1.20;1.08;;;16.00;99.90;;;;;;4992944;28;20070;-62
2022/08/31 01:34:19;;;;;;;1.75;1.13;;;16.00;99.90;;;;;;4994376;28;20110;-62
2022/08/31 01:36:47;;;;;;;2.13;1.00;;;16.10;99.90;;;;;;4992911;28;20038;-62
2022/08/31 01:39:13;;;;;;;5.80;2.05;;;16.10;99.90;;;;;;4994685;28;20165;-62
2022/08/31 01:41:42;;;;;;;1.30;1.08;;;16.00;99.90;;;;;;4994317;28;20077;-62
2022/08/31 01:44:12;;;;;;;1.25;1.10;;;16.00;99.90;;;;;;4986379;28;20042;-62
2022/08/31 01:46:39;;;;;;;1.95;1.10;;;15.90;99.90;;;;;;4992734;28;20057;-62
2022/08/31 01:49:05;;;;;;;6.32;1.02;;;15.90;99.90;;;;;;4992882;28;20060;-62
2022/08/31 01:51:31;;;;;;;1.48;1.05;;;15.90;99.90;;;;;;4989568;28;20046;-62
2022/08/31 01:53:57;;;;;;;4.97;1.17;;;15.90;99.90;;;;;;4993481;28;20125;-62
2022/08/31 01:56:29;;;;;;;1.30;1.10;;;15.90;99.90;;;;;;4993039;28;20372;-62
2022/08/31 01:58:55;;;;;;;1.50;1.10;;;15.90;99.90;;;;;;4994087;28;20042;-62
2022/08/31 02:01:26;;;;;;;3.28;1.20;;;15.90;99.90;;;;;;4992863;28;20030;-62
2022/08/31 02:03:52;;;;;;;1.73;1.05;;;15.80;99.90;;;;;;4986580;28;20148;-62
2022/08/31 02:06:17;;;;;;;1.83;1.15;;;15.90;99.90;;;;;;4993103;28;20121;-62
2022/08/31 02:08:43;;;;;;;2.38;1.00;;;15.80;99.90;;;;;;4993967;28;20044;-62
2022/08/31 02:11:08;;;;;;;1.33;1.20;;;15.80;99.90;;;;;;4991798;28;20069;-62
2022/08/31 02:13:35;;;;;;;6.75;1.60;;;15.80;99.90;;;;;;4989713;28;20046;-62
2022/08/31 02:16:00;;;;;;;2.40;1.30;;;15.70;99.90;;;;;;4992782;28;20046;-62
2022/08/31 02:18:27;;;;;;;1.85;1.23;;;15.70;99.90;;;;;;4993857;28;20038;-62
2022/08/31 02:20:53;;;;;;;2.10;1.10;;;15.60;99.90;;;;;;4993468;28;20093;-62
2022/08/31 02:23:19;;;;;;;1.20;1.10;;;15.60;99.90;;;;;;4992545;28;20474;-62
2022/08/31 02:25:44;;;;;;;2.75;1.38;;;15.50;99.90;;;;;;4993005;28;20049;-62
2022/08/31 02:28:12;;;;;;;1.48;0.95;;;15.40;99.90;;;;;;4992580;28;20034;-62
2022/08/31 02:30:41;;;;;;;2.80;1.35;;;15.40;99.90;;;;;;4992108;28;20510;-62
2022/08/31 02:33:08;;;;;;;3.67;1.02;;;15.20;1.00;;;;;;4991786;28;20042;-62
2022/08/31 02:35:34;;;;;;;4.53;1.20;;;15.30;1.00;;;;;;4992578;28;20113;-62
2022/08/31 02:38:00;;;;;;;1.25;1.10;;;15.20;1.00;;;;;;4992645;28;20046;-62
2022/08/31 02:40:25;;;;;;;1.02;0.85;;;15.20;1.00;;;;;;4990286;28;20392;-62
2022/08/31 02:42:51;;;;;;;2.80;1.08;;;15.20;67.80;;;;;;4991367;28;20049;-62
2022/08/31 02:45:17;;;;;;;2.38;0.90;;;15.20;99.90;;;;;;4992666;28;20088;-62
2022/08/31 02:47:43;;;;;;;2.30;1.00;;;15.30;99.90;;;;;;4987231;28;20136;-62
2022/08/31 02:50:09;;;;;;;2.90;0.90;;;15.20;99.90;;;;;;4993115;28;20038;-62
2022/08/31 02:52:35;;;;;;;3.58;1.35;;;15.30;99.90;;;;;;4992349;28;20113;-62
2022/08/31 02:55:01;;;;;;;2.33;1.00;;;15.30;81.20;;;;;;4991403;28;20053;-62
2022/08/31 02:57:26;;;;;;;1.13;0.90;;;15.30;58.10;;;;;;4991122;28;20492;-62
2022/08/31 02:59:52;;;;;;;1.30;1.02;;;15.30;1.00;;;;;;4992584;28;20031;-62
2022/08/31 03:02:18;;;;;;;0.80;0.80;;;15.30;1.00;;;;;;4993065;28;20875;-62
2022/08/31 03:04:44;;;;;;;1.80;0.93;;;15.30;1.00;;;;;;4986153;28;20055;-62
2022/08/31 03:07:09;;;;;;;2.75;1.02;;;15.30;1.00;;;;;;4992089;28;20510;-62
2022/08/31 03:09:35;;;;;;;1.27;1.00;;;15.30;1.00;;;;;;4991900;28;20042;-62
2022/08/31 03:12:01;;;;;;;3.45;1.13;;;15.30;1.00;;;;;;4991303;28;20530;-62
2022/08/31 03:14:27;;;;;;;4.20;1.15;;;15.20;1.00;;;;;;4991318;28;21138;-62
2022/08/31 03:16:53;;;;;;;1.48;1.00;;;15.20;99.90;;;;;;4992122;28;20046;-62
2022/08/31 03:19:19;;;;;;;1.77;1.00;;;15.00;99.90;;;;;;4992710;28;20050;-62
2022/08/31 03:21:45;;;;;;;1.27;0.80;;;14.90;99.90;;;;;;4992049;28;20046;-62
2022/08/31 03:24:12;;;;;;;3.90;1.35;;;14.70;1.00;;;;;;4991222;28;20077;-62
2022/08/31 03:26:37;;;;;;;3.90;1.30;;;14.60;1.00;;;;;;4977210;28;20045;-62
2022/08/31 03:29:03;;;;;;;2.25;1.20;;;14.40;1.00;;;;;;4991875;28;20039;-62
2022/08/31 03:31:30;;;;;;;1.17;1.00;;;15.00;99.90;;;;;;4992197;28;20046;-62
2022/08/31 03:33:56;;;;;;;3.22;1.10;;;14.30;99.90;;;;;;4992615;28;20605;-62
2022/08/31 03:36:22;;;;;;;2.47;1.15;;;14.30;99.90;;;;;;4986724;28;20093;-62
2022/08/31 03:38:48;;;;;;;1.98;1.00;;;14.20;1.00;;;;;;4989811;28;20047;-62
2022/08/31 03:41:18;;;;;;;1.55;1.10;;;14.10;1.00;;;;;;4985126;28;20492;-62
2022/08/31 03:43:44;;;;;;;1.92;1.20;;;14.10;99.90;;;;;;4990967;28;20050;-62
2022/08/31 03:46:10;;;;;;;4.32;1.15;;;14.10;99.90;;;;;;4990125;28;20057;-62
2022/08/31 03:48:35;;;;;;;1.40;1.20;;;14.00;1.00;;;;;;4991954;28;20408;-62
2022/08/31 03:51:01;;;;;;;3.53;1.00;;;14.00;95.30;;;;;;4991747;28;20437;-62
2022/08/31 03:53:26;;;;;;;1.05;1.00;;;14.00;99.90;;;;;;4991545;28;20133;-62
2022/08/31 03:56:00;;;;;;;1.20;1.00;;;14.00;1.00;;;;;;4986017;28;20065;-62
2022/08/31 03:58:30;;;;;;;2.22;1.05;;;14.00;1.00;;;;;;4990500;28;20412;-62
2022/08/31 04:00:55;;;;;;;6.82;2.28;;;14.00;99.90;;;;;;4991810;28;20038;-62
2022/08/31 04:03:22;;;;;;;3.58;1.05;;;14.00;99.90;;;;;;4984722;28;20057;-62
2022/08/31 04:05:48;;;;;;;1.15;1.10;;;14.10;1.00;;;;;;4987574;28;20046;-62
2022/08/31 04:08:15;;;;;;;1.95;1.00;;;14.10;54.30;;;;;;4991447;28;20121;-62
2022/08/31 04:10:43;;;;;;;2.80;0.95;;;14.20;99.90;;;;;;4989736;28;20054;-62
2022/08/31 04:13:08;;;;;;;2.30;1.10;;;14.20;99.90;;;;;;4990474;28;20041;-62
2022/08/31 04:15:38;;;;;;;4.40;1.20;;;14.30;1.00;;;;;;4984495;28;20042;-62
2022/08/31 04:18:04;;;;;;;2.78;1.10;;;14.40;9.30;;;;;;4987515;28;20031;-62
2022/08/31 04:20:37;;;;;;;2.20;1.20;;;14.50;99.90;;;;;;4990670;28;20101;-62
2022/08/31 04:23:03;;;;;;;4.38;1.10;;;14.60;99.90;;;;;;4991073;28;20368;-62
2022/08/31 04:25:29;;;;;;;3.13;0.98;;;14.60;99.90;;;;;;4991054;28;20038;-62
2022/08/31 04:27:55;;;;;;;1.30;1.20;;;14.70;99.90;;;;;;4989897;28;20515;-62
2022/08/31 04:30:22;;;;;;;2.30;1.23;;;14.70;99.90;;;;;;4991054;28;20117;-62
2022/08/31 04:32:48;;;;;;;2.60;1.10;;;14.70;99.90;;;;;;4990231;28;20396;-62
2022/08/31 04:35:14;;;;;;;6.03;1.23;;;14.70;99.90;;;;;;4984242;28;20564;-62
2022/08/31 04:37:40;;;;;;;2.53;1.00;;;14.80;99.90;;;;;;4978729;28;20122;-62
2022/08/31 04:40:16;;;;;;;1.60;1.15;;;14.80;99.90;;;;;;4991095;28;20484;-62
2022/08/31 04:42:42;;;;;;;1.08;1.02;;;14.80;99.90;;;;;;4988965;28;20074;-62
2022/08/31 04:45:08;;;;;;;3.22;1.10;;;14.80;1.00;;;;;;4991580;28;20042;-62
2022/08/31 04:47:34;;;;;;;1.55;1.10;;;14.80;1.00;;;;;;4980716;28;20039;-62
2022/08/31 04:49:59;;;;;;;7.85;1.38;;;14.90;1.00;;;;;;4991093;28;20134;-62
2022/08/31 04:52:25;;;;;;;4.00;1.20;;;15.40;8.80;;;;;;4991367;28;20053;-62
2022/08/31 04:54:50;;;;;;;5.18;1.20;;;14.90;69.90;;;;;;4989891;28;20116;-62
2022/08/31 04:57:16;;;;;;;7.47;1.33;;;14.90;99.90;;;;;;4990812;28;20069;-62
2022/08/31 04:59:41;;;;;;;5.15;1.60;;;15.00;99.90;;;;;;4991198;28;20132;-62
2022/08/31 05:02:07;;;;;;;1.77;1.30;;;14.90;99.90;;;;;;4991342;28;20093;-62
2022/08/31 05:04:33;;;;;;;3.45;1.17;;;15.00;99.90;;;;;;4992018;28;20042;-62
2022/08/31 05:06:58;;;;;;;3.72;1.20;;;15.00;99.90;;;;;;4994448;28;20035;-62
2022/08/31 05:09:24;;;;;;;2.50;1.27;;;15.10;99.90;;;;;;4995268;28;20506;-62
2022/08/31 05:11:52;;;;;;;3.38;1.40;;;15.20;99.90;;;;;;4984413;28;20047;-62
2022/08/31 05:14:20;;;;;;;1.85;1.20;;;15.10;99.90;;;;;;4994446;28;20082;-62
2022/08/31 05:16:46;;;;;;;2.03;1.50;;;15.10;99.90;;;;;;4994820;28;20042;-62
2022/08/31 05:19:12;;;;;;;1.75;1.30;;;15.10;99.90;;;;;;4988832;28;20083;-62
2022/08/31 05:21:39;;;;;;;1.73;1.27;;;15.10;99.90;;;;;;4984757;28;20038;-62
2022/08/31 05:24:11;;;;;;;2.17;1.40;;;15.50;99.90;;;;;;4993573;28;20234;-62
2022/08/31 05:26:42;;;;;;;1.63;1.42;;;15.20;99.90;;;;;;4987957;28;20056;-62
2022/08/31 05:29:09;;;;;;;1.70;1.23;;;15.20;99.90;;;;;;4987175;28;20193;-62
2022/08/31 05:31:36;;;;;;;3.25;1.40;;;15.30;99.90;;;;;;4986166;28;20038;-62
2022/08/31 05:34:03;;;;;;;1.45;1.10;;;15.20;99.90;;;;;;4987995;28;20038;-62
2022/08/31 05:36:29;;;;;;;2.80;1.50;;;15.40;99.90;;;;;;4985622;28;20061;-62
2022/08/31 05:38:54;;;;;;;12.57;1.70;;;15.50;99.90;;;;;;4991905;28;20488;-62
2022/08/31 05:41:21;;;;;;;2.20;1.30;;;15.60;99.90;;;;;;4990252;28;20558;-62
2022/08/31 05:43:47;;;;;;;4.68;1.38;;;15.60;99.90;;;;;;4991510;28;20369;-62
2022/08/31 05:46:14;;;;;;;3.45;1.45;;;15.60;99.90;;;;;;4991780;28;20042;-62
2022/08/31 05:48:40;;;;;;;2.30;1.50;;;15.70;99.90;;;;;;4991451;28;20045;-62
2022/08/31 05:51:11;;;;;;;5.47;1.50;;;15.70;99.90;;;;;;4986572;28;20100;-62
2022/08/31 05:53:37;;;;;;;18.13;2.00;;;15.70;99.90;;;;;;4992120;28;20612;-62
2022/08/31 05:56:09;;;;;;;7.13;1.70;;;15.80;99.90;;;;;;4991319;28;20042;-63
2022/08/31 05:58:37;;;;;;;12.32;2.08;;;17.80;99.90;;;;;;4991006;28;20046;-62
2022/08/31 06:01:11;;;;;;;8.65;2.05;;;15.90;99.90;;;;;;4987823;28;20042;-62
2022/08/31 06:03:36;;;;;;;7.60;1.50;;;16.00;99.90;;;;;;4991202;28;20045;-63
2022/08/31 06:06:02;;;;;;;5.45;1.98;;;16.00;99.90;;;;;;4989931;28;20472;-62
2022/08/31 06:08:27;;;;;;;10.18;1.70;;;16.20;99.90;;;;;;4992134;28;20387;-62
2022/08/31 06:10:56;;;;;;;8.88;2.00;;;16.30;99.90;;;;;;4991859;28;20467;-61
2022/08/31 06:13:22;;;;;;;7.95;1.70;;;16.40;99.90;;;;;;4991956;28;20053;-62
2022/08/31 06:15:48;;;;;;;3.35;1.73;;;16.50;99.90;;;;;;4991099;28;20054;-62
2022/08/31 06:18:13;;;;;;;1.48;1.20;;;16.50;99.90;;;;;;4983523;28;20464;-62
2022/08/31 06:20:39;;;;;;;3.50;1.67;;;16.60;99.90;;;;;;4987836;28;20093;-62
2022/08/31 06:23:07;;;;;;;2.92;1.70;;;16.60;99.90;;;;;;4986726;28;20117;-62
2022/08/31 06:25:35;;;;;;;13.15;2.03;;;16.60;99.90;;;;;;4990016;28;20038;-62
2022/08/31 06:28:05;;;;;;;8.05;1.77;;;16.70;99.90;;;;;;4982794;28;20042;-62
2022/08/31 06:30:38;;;;;;;3.97;1.55;;;16.80;99.90;;;;;;4987280;28;20523;-62
2022/08/31 06:33:05;;;;;;;7.93;1.50;;;16.80;99.90;;;;;;4987284;28;20134;-62
2022/08/31 06:35:31;;;;;;;2.83;1.60;;;16.80;99.90;;;;;;4990837;28;20261;-62
2022/08/31 06:37:56;;;;;;;4.57;1.50;;;16.90;99.90;;;;;;4974391;28;20125;-62
2022/08/31 06:40:24;;;;;;;6.53;1.77;;;17.00;99.90;;;;;;4986163;28;20042;-63
2022/08/31 06:42:50;;;;;;;1.83;1.40;;;17.00;99.90;;;;;;4988870;28;20559;-62
2022/08/31 06:45:16;;;;;;;3.83;1.70;;;17.10;99.90;;;;;;4988377;28;20122;-63
2022/08/31 06:47:41;;;;;;;5.00;1.80;;;17.20;99.90;;;;;;4983571;28;20484;-61
2022/08/31 06:50:07;;;;;;;3.28;1.38;;;17.20;99.90;;;;;;4989719;28;20034;-63
2022/08/31 06:52:33;;;;;;;4.85;1.40;;;17.30;99.90;;;;;;4991419;28;20034;-63
2022/08/31 06:54:59;;;;;;;2.97;1.40;;;17.40;99.90;;;;;;4992790;28;20046;-63
2022/08/31 06:57:25;;;;;;;2.25;1.40;;;17.50;99.90;;;;;;4972900;28;20392;-63
2022/08/31 06:59:52;;;;;;;2.47;1.38;;;17.60;99.90;;;;;;4992623;28;20040;-63
2022/08/31 07:02:18;;;;;;;3.45;1.60;;;17.70;99.90;;;;;;4988075;28;20078;-62
2022/08/31 07:04:44;;;;;;;2.75;1.25;;;17.70;99.90;;;;;;4989178;28;20704;-62
2022/08/31 07:07:10;;;;;;;3.28;1.40;;;17.70;99.90;;;;;;4990195;28;20062;-62
2022/08/31 07:09:38;;;;;;;6.80;1.13;;;17.70;99.90;;;;;;4990369;28;20038;-63
2022/08/31 07:12:04;;;;;;;2.67;1.38;;;17.80;99.90;;;;;;4985127;28;20046;-62
2022/08/31 07:14:29;;;;;;;3.65;1.50;;;17.90;99.90;;;;;;4990192;28;20141;-62
2022/08/31 07:16:56;;;;;;;1.30;1.20;;;18.00;99.90;;;;;;4989538;28;20034;-62
2022/08/31 07:19:23;;;;;;;5.07;1.50;;;18.10;99.90;;;;;;4989101;28;20551;-63
2022/08/31 07:21:52;;;;;;;1.45;1.17;;;18.20;99.90;;;;;;4989136;28;20035;-63
2022/08/31 07:24:22;;;;;;;3.28;1.65;;;18.30;99.90;;;;;;4990306;28;20053;-63
2022/08/31 07:26:52;;;;;;;4.65;1.50;;;18.30;99.90;;;;;;4988819;28;20046;-63
2022/08/31 07:29:19;;;;;;;2.42;1.27;;;18.40;99.90;;;;;;4986583;28;20747;-62
2022/08/31 07:31:46;;;;;;;5.13;1.30;;;18.50;99.90;;;;;;4988234;28;20046;-63
2022/08/31 07:34:20;;;;;;;4.10;1.23;;;18.70;99.90;;;;;;4988591;28;20042;-63
2022/08/31 07:42:20;;;;;;;2.28;1.30;;;19.00;99.90;;;;;;4986851;28;20511;-63
2022/08/31 07:44:48;;;;;;;3.03;1.40;;;19.10;99.90;;;;;;4989739;28;20124;-63
2022/08/31 07:47:18;;;;;;;2.38;1.30;;;19.60;99.90;;;;;;4985942;28;20129;-63
2022/08/31 07:49:47;;;;;;;3.72;1.40;;;20.00;99.90;;;;;;4989113;28;20550;-63
2022/08/31 07:52:22;;;;;;;2.75;1.15;;;20.30;3.40;;;;;;4986071;28;20041;-63
2022/08/31 07:54:49;;;;;;;2.65;1.02;;;20.50;1.00;;;;;;4989525;28;20038;-63
2022/08/31 07:57:14;;;;;;;6.65;1.50;;;20.70;1.00;;;;;;4985212;28;20038;-63
2022/08/31 07:59:40;;;;;;;3.17;1.10;;;21.00;1.00;;;;;;4988781;28;20031;-63
2022/08/31 08:02:09;;;;;;;1.58;1.10;;;21.00;99.90;;;;;;4989402;28;20092;-63
2022/08/31 08:04:37;;;;;;;2.58;1.05;;;21.20;99.90;;;;;;4990866;28;20038;-63
2022/08/31 08:07:04;;;;;;;1.42;1.00;;;21.40;1.00;;;;;;4985736;28;20054;-63
2022/08/31 08:09:31;;;;;;;3.72;1.27;;;21.80;13.70;;;;;;4988899;28;20129;-63
2022/08/31 08:12:03;;;;;;;2.38;1.35;;;22.00;99.90;;;;;;4989442;28;20058;-64
2022/08/31 08:14:29;;;;;;;2.17;1.10;;;22.00;99.90;;;;;;4991648;28;20042;-63
2022/08/31 08:16:55;;;;;;;1.95;0.93;;;22.10;10.40;;;;;;4988886;28;20117;-64
2022/08/31 08:19:21;;;;;;;2.65;1.27;;;22.10;99.90;;;;;;4989703;28;20396;-64
2022/08/31 08:21:46;;;;;;;9.23;1.25;;;22.00;57.20;;;;;;4991354;28;20039;-64
2022/08/31 08:24:13;;;;;;;3.60;1.02;;;21.90;1.00;;;;;;4989727;28;20038;-64
2022/08/31 08:26:45;;;;;;;2.55;1.10;;;21.90;99.90;;;;;;4990072;28;20046;-64
2022/08/31 08:29:10;;;;;;;11.50;1.85;;;21.80;99.90;;;;;;4990766;28;20034;-63
2022/08/31 08:31:36;;;;;;;9.90;1.58;;;22.00;99.90;;;;;;4988712;28;20043;-64
2022/08/31 08:34:02;;;;;;;1.92;1.20;;;22.30;99.90;;;;;;4989671;28;20042;-64
2022/08/31 08:36:33;;;;;;;5.57;1.42;;;22.60;72.60;;;;;;4985413;28;20108;-63
2022/08/31 08:38:59;;;;;;;2.22;1.17;;;22.70;1.00;;;;;;4991312;28;20038;-64
2022/08/31 08:41:27;;;;;;;2.50;0.93;;;23.00;1.00;;;;;;4994590;28;20030;-64
2022/08/31 08:43:56;;;;;;;0.98;0.85;;;22.80;1.00;;;;;;4993935;28;20035;-64
2022/08/31 08:46:38;;;;;;;7.50;1.00;;;22.90;99.90;;;;;;4994481;28;20515;-64
2022/08/31 08:49:41;;;;;;;5.45;1.13;;;22.70;99.90;;;;;;4993202;28;20046;-64
2022/08/31 08:52:11;;;;;;;2.42;1.02;;;22.60;99.90;;;;;;4986965;28;20515;-64
2022/08/31 08:54:44;;;;;;;6.35;1.00;;;22.80;99.90;;;;;;4991323;28;20084;-64
2022/08/31 08:57:24;;;;;;;1.65;0.90;;;22.90;99.90;;;;;;4993421;28;20538;-64
2022/08/31 08:59:59;;;;;;;8.68;1.23;;;22.90;99.90;;;;;;4993172;28;20034;-64
2022/08/31 09:02:56;;;;;;;4.33;1.10;;;23.00;85.90;;;;;;4991918;28;20069;-64
2022/08/31 09:05:31;;;;;;;2.05;0.80;;;23.10;53.90;;;;;;4995423;28;20042;-64
2022/08/31 09:08:30;;;;;;;10.40;0.90;;;23.40;4.00;;;;;;4991602;28;20400;-64
2022/08/31 09:11:21;;;;;;;1.58;0.75;;;23.50;1.00;;;;;;5008754;28;20062;-64
2022/08/31 09:13:54;;;;;;;1.70;1.10;;;23.60;1.00;;;;;;4988397;28;20113;-64
2022/08/31 09:16:37;;;;;;;2.65;0.80;;;23.70;1.00;;;;;;4992958;28;20050;-64
2022/08/31 09:19:09;;;;;;;3.53;1.13;;;23.80;1.00;;;;;;4986527;28;20117;-64
2022/08/31 09:21:42;;;;;;;1.85;1.00;;;24.10;1.00;;;;;;4991960;28;20034;-64
2022/08/31 09:24:11;;;;;;;3.47;0.80;;;24.20;1.00;;;;;;4988299;28;20030;-64
2022/08/31 09:27:03;;;;;;;4.10;1.13;;;24.30;1.00;;;;;;4989302;28;20053;-64
2022/08/31 09:29:31;;;;;;;2.15;0.90;;;23.90;1.00;;;;;;4982978;28;20074;-64
2022/08/31 09:32:06;;;;;;;0.82;0.80;;;23.50;1.00;;;;;;4986876;28;20042;-63
2022/08/31 09:34:37;;;;;;;3.47;1.00;;;23.20;1.00;;;;;;4991426;28;20053;-64
2022/08/31 09:37:20;;;;;;;1.25;0.82;;;22.80;1.00;;;;;;4989560;28;20491;-64
2022/08/31 09:39:48;;;;;;;4.30;1.00;;;23.00;1.00;;;;;;4988072;28;20490;-64
2022/08/31 09:42:34;;;;;;;0.98;0.88;;;22.90;1.00;;;;;;4991738;28;20034;-64
2022/08/31 09:45:14;;;;;;;3.33;0.90;;;22.80;1.00;;;;;;4988393;28;20069;-64
2022/08/31 09:47:51;;;;;;;0.70;0.70;;;23.10;1.00;;;;;;4989089;28;20034;-64
2022/08/31 09:50:44;;;;;;;1.80;1.33;;;23.10;1.00;;;;;;4986468;28;20046;-64
2022/08/31 09:56:22;;;;;;;2.05;1.10;;;23.60;99.90;;;;;;4987250;28;20050;-64
2022/08/31 09:58:53;;;;;;;0.82;0.73;;;23.80;99.90;;;;;;4991411;28;20101;-64
2022/08/31 10:01:32;;;;;;;1.45;0.93;;;23.90;99.90;;;;;;4993149;28;20030;-64
2022/08/31 10:04:18;;;;;;;1.42;0.90;;;24.10;99.90;;;;;;4992739;28;20554;-64
2022/08/31 10:07:12;;;;;;;2.65;0.82;;;23.90;99.90;;;;;;4989498;28;20057;-63
2022/08/31 10:09:45;;;;;;;1.42;0.80;;;23.30;99.90;;;;;;4986797;28;20042;-63
2022/08/31 10:12:20;;;;;;;8.73;0.85;;;23.40;99.90;;;;;;4987541;28;20129;-63
2022/08/31 10:15:02;;;;;;;22.17;1.60;;;23.50;99.90;;;;;;4987913;28;20125;-63
2022/08/31 10:17:37;;;;;;;14.82;1.20;;;24.60;99.90;;;;;;4989462;28;20184;-63
2022/08/31 10:20:17;;;;;;;65.47;2.47;;;23.40;99.90;;;;;;4989655;28;20046;-63
2022/08/31 10:22:49;;;;;;;50.60;3.13;;;23.40;99.90;;;;;;4990221;28;20049;-63
2022/08/31 10:25:40;;;;;;;2.83;1.00;;;23.10;99.90;;;;;;4989154;28;20046;-63
2022/08/31 10:28:27;;;;;;;3.35;0.88;;;23.10;99.90;;;;;;4988004;28;20188;-63
2022/08/31 10:30:56;;;;;;;2.10;0.80;;;23.00;99.90;;;;;;4991002;28;20038;-63
2022/08/31 10:35:01;;;;;;;2.50;0.90;;;22.80;99.90;;;;;;4989471;28;20054;-63
2022/08/31 10:36:14;;;;;;;1.00;0.90;;;22.30;99.90;;;;;;4989862;28;20499;-63
2022/08/31 10:38:43;;;;;;;1.42;0.95;;;22.10;99.90;;;;;;4988505;28;20076;-63
2022/08/31 10:41:39;;;;;;;3.95;0.88;;;22.20;99.90;;;;;;4992539;28;20077;-63
2022/08/31 10:44:16;;;;;;;7.43;1.58;;;22.20;99.90;;;;;;4975785;28;20046;-63
2022/08/31 10:46:43;;;;;;;1.17;0.90;;;22.20;99.90;;;;;;4988488;28;20085;-63
2022/08/31 10:49:10;;;;;;;1.92;1.00;;;22.40;99.90;;;;;;4991294;28;20042;-63
2022/08/31 10:52:01;;;;;;;1.00;0.70;;;22.40;99.90;;;;;;4990097;28;20035;-63
2022/08/31 10:54:32;;;;;;;0.82;0.80;;;22.50;99.90;;;;;;4993133;28;20125;-63
2022/08/31 10:57:28;;;;;;;1.50;1.00;;;22.70;99.90;;;;;;4987928;28;20057;-63
2022/08/31 11:00:51;;;;;;;3.42;0.98;;;22.60;99.90;;;;;;4990806;28;20046;-63
2022/08/31 11:03:05;;;;;;;1.10;0.70;;;22.80;99.90;;;;;;4985940;28;20045;-63
2022/08/31 11:05:56;;;;;;;1.65;0.77;;;22.90;99.90;;;;;;5005105;28;20121;-63
2022/08/31 11:08:34;;;;;;;5.32;0.98;;;22.60;99.90;;;;;;4991414;28;20042;-63
2022/08/31 11:11:04;;;;;;;8.23;1.25;;;22.40;99.90;;;;;;4990630;28;20093;-63
2022/08/31 11:14:13;;;;;;;16.88;1.20;;;22.30;99.90;;;;;;4992005;28;20042;-63
2022/08/31 11:17:02;;;;;;;3.38;1.00;;;22.20;99.90;;;;;;4988025;28;20046;-63
2022/08/31 11:20:09;;;;;;;6.22;1.00;;;22.30;99.90;;;;;;4988804;28;20045;-63
2022/08/31 11:22:46;;;;;;;14.15;1.75;;;22.20;99.90;;;;;;4988330;28;20077;-63
2022/08/31 11:25:33;;;;;;;17.30;1.10;;;22.20;99.90;;;;;;4991864;28;20046;-63
2022/08/31 11:28:32;;;;;;;10.70;1.20;;;22.30;99.90;;;;;;4986493;28;20039;-63
2022/08/31 11:31:08;;;;;;;97.70;3.30;;;22.20;99.90;;;;;;4991338;28;20030;-63
2022/08/31 11:33:34;;;;;;;19.15;1.58;;;22.20;99.90;;;;;;4986339;28;20129;-63
2022/08/31 11:36:08;;;;;;;2.08;1.00;;;22.00;99.90;;;;;;4989386;28;20072;-63
2022/08/31 11:39:02;;;;;;;4.13;1.20;;;21.90;99.90;;;;;;4991076;28;20113;-63
2022/08/31 11:41:45;;;;;;;15.95;1.38;;;22.00;99.90;;;;;;4988515;28;20057;-63
2022/08/31 11:44:30;;;;;;;3.90;1.30;;;21.90;99.90;;;;;;4989799;28;20034;-63
2022/08/31 11:47:27;;;;;;;0.70;0.70;;;21.90;99.90;;;;;;4990655;28;20078;-63
2022/08/31 11:50:04;;;;;;;34.30;2.08;;;21.90;99.90;;;;;;4991479;28;20034;-63
2022/08/31 11:52:37;;;;;;;20.40;2.47;;;22.00;99.90;;;;;;4988414;28;20578;-63
2022/08/31 11:55:16;;;;;;;5.18;1.17;;;22.00;99.90;;;;;;4991186;28;20046;-63
2022/08/31 11:58:05;;;;;;;2.08;1.60;;;22.00;99.90;;;;;;4990600;28;20057;-63
2022/08/31 12:00:40;;;;;;;8.70;1.15;;;21.90;99.90;;;;;;4990695;28;20052;-62
2022/08/31 12:03:08;;;;;;;1.75;0.88;;;21.80;99.90;;;;;;5002307;28;20057;-63
2022/08/31 12:05:46;;;;;;;10.57;1.10;;;21.80;99.90;;;;;;4990359;28;20392;-63
2022/08/31 12:08:14;;;;;;;23.90;1.42;;;21.80;99.90;;;;;;4984905;28;20042;-63
2022/08/31 12:11:10;;;;;;;3.72;1.08;;;21.90;99.90;;;;;;4989503;28;20066;-63
2022/08/31 12:13:48;;;;;;;;;;;22.10;99.90;;;;;;4987765;28;20041;-63
2022/08/31 12:16:41;;;;;;;0.98;0.80;;;22.00;99.90;;;;;;4991412;28;20014;-63
2022/08/31 12:25:53;;;;;;;4.60;1.08;;;22.00;99.90;;;;;;4990862;28;20054;-63
2022/08/31 12:28:34;;;;;;;1.75;0.88;;;22.00;99.90;;;;;;4981467;28;20058;-63
2022/08/31 12:31:04;;;;;;;8.13;1.05;;;22.10;99.90;;;;;;4990353;28;20255;-63
2022/08/31 12:33:32;;;;;;;1.55;0.90;;;22.10;99.90;;;;;;4984641;28;20839;-63
2022/08/31 12:36:23;;;;;;;49.65;2.25;;;22.00;99.90;;;;;;4990258;28;20042;-63
2022/08/31 12:39:03;;;;;;;4.03;1.20;;;22.00;99.90;;;;;;4985459;28;20037;-63
2022/08/31 12:41:29;;;;;;;14.82;1.88;;;21.90;99.90;;;;;;4987058;28;20097;-63
2022/08/31 12:43:54;;;;;;;3.85;1.00;;;21.90;99.90;;;;;;4985813;28;20488;-63
2022/08/31 12:46:47;;;;;;;1.58;0.98;;;21.90;99.90;;;;;;4976846;28;20499;-63
2022/08/31 12:49:31;;;;;;;1.77;1.00;;;21.80;99.90;;;;;;4988917;28;20531;-63
2022/08/31 12:52:23;;;;;;;2.15;1.33;;;21.80;99.90;;;;;;4987940;28;20039;-63
2022/08/31 12:55:07;;;;;;;3.80;1.27;;;21.90;99.90;;;;;;4990129;28;20101;-63
2022/08/31 12:57:58;;;;;;;3.08;1.00;;;21.90;99.90;;;;;;4988603;28;20227;-63
2022/08/31 13:00:34;;;;;;;11.18;1.25;;;22.00;99.90;;;;;;4984148;28;20487;-63
2022/08/31 13:03:08;;;;;;;;;;;21.90;99.90;;;;;;4986766;28;20049;-63
2022/08/31 13:05:36;;;;;;;4.38;0.90;;;21.90;99.90;;;;;;4989558;28;19918;-63
2022/08/31 13:08:21;;;;;;;2.15;1.10;;;21.80;99.90;;;;;;4989447;28;20046;-63
2022/08/31 13:10:47;;;;;;;8.70;1.03;;;22.00;99.90;;;;;;4986171;28;20054;-63
2022/08/31 13:13:22;;;;;;;13.23;1.40;;;22.00;99.90;;;;;;4972812;28;20298;-63
2022/08/31 13:15:48;;;;;;;2.30;1.08;;;22.00;99.90;;;;;;4987355;28;20081;-63
2022/08/31 13:18:20;;;;;;;18.70;1.42;;;22.00;99.90;;;;;;4989256;28;20456;-63
2022/08/31 13:20:46;;;;;;;8.75;1.20;;;22.20;99.90;;;;;;4988172;28;20100;-63
2022/08/31 13:23:20;;;;;;;4.13;1.15;;;22.20;99.90;;;;;;4990817;28;20054;-63
2022/08/31 13:26:08;;;;;;;4.97;1.05;;;22.30;99.90;;;;;;4988752;28;20488;-63
2022/08/31 13:28:34;;;;;;;8.27;1.30;;;22.10;99.90;;;;;;4992533;28;20148;-63